createdAt,value
2019-05-30T00:01:39.076Z,1.70
2019-05-30T00:04:09.229Z,2.20
2019-05-30T00:06:39.220Z,2.20
2019-05-30T00:09:10.643Z,1.70
2019-05-30T00:11:40.766Z,2.87
2019-05-30T00:14:12.841Z,2.10
2019-05-30T00:16:43.256Z,7.70
2019-05-30T00:19:13.375Z,2.10
2019-05-30T00:21:43.438Z,2.10
2019-05-30T00:24:13.633Z,2.30
2019-05-30T00:26:43.974Z,2.50
2019-05-30T00:29:14.465Z,1.80
2019-05-30T00:31:44.665Z,3.13
2019-05-30T00:34:14.733Z,3.23
2019-05-30T00:36:45.219Z,1.73
2019-05-30T00:39:15.459Z,2.43
2019-05-30T00:41:45.803Z,1.90
2019-05-30T00:44:16.106Z,2.50
2019-05-30T00:46:46.913Z,1.90
2019-05-30T00:49:17.053Z,2.10
2019-05-30T00:51:47.186Z,2.00
2019-05-30T00:54:17.585Z,7.00
2019-05-30T00:56:47.950Z,2.83
2019-05-30T00:59:17.952Z,2.20
2019-05-30T01:01:48.132Z,4.73
2019-05-30T01:04:18.538Z,2.40
2019-05-30T01:06:48.780Z,6.40
2019-05-30T01:09:18.790Z,2.10
2019-05-30T01:11:49.474Z,5.00
2019-05-30T01:14:19.447Z,3.30
2019-05-30T01:16:49.731Z,2.60
2019-05-30T01:19:20.215Z,2.10
2019-05-30T01:21:51.895Z,2.47
2019-05-30T01:24:22.160Z,4.90
2019-05-30T01:26:52.485Z,2.67
2019-05-30T01:29:22.460Z,2.80
2019-05-30T01:31:52.636Z,4.20
2019-05-30T01:34:22.515Z,3.20
2019-05-30T01:36:52.719Z,4.43
2019-05-30T01:39:22.983Z,3.03
2019-05-30T01:41:53.231Z,2.67
2019-05-30T01:44:23.247Z,3.63
2019-05-30T01:46:53.542Z,2.43
2019-05-30T01:49:23.503Z,2.33
2019-05-30T01:51:53.492Z,3.63
2019-05-30T01:54:23.885Z,2.13
2019-05-30T01:56:54.332Z,2.40
2019-05-30T01:59:24.268Z,3.13
2019-05-30T02:01:54.611Z,2.60
2019-05-30T02:04:25.159Z,1.93
2019-05-30T02:06:55.268Z,3.77
2019-05-30T02:09:25.503Z,2.30
2019-05-30T02:11:55.764Z,2.10
2019-05-30T02:14:25.904Z,2.30
2019-05-30T02:16:56.080Z,5.23
2019-05-30T02:19:26.654Z,2.50
2019-05-30T02:21:57.065Z,2.40
2019-05-30T02:24:27.181Z,2.33
2019-05-30T02:26:57.307Z,2.83
2019-05-30T02:29:27.611Z,11.27
2019-05-30T02:31:57.986Z,3.50
2019-05-30T02:34:28.478Z,2.07
2019-05-30T02:36:58.579Z,2.37
2019-05-30T02:39:28.856Z,3.70
2019-05-30T02:42:00.802Z,9.03
2019-05-30T02:44:31.759Z,2.50
2019-05-30T02:47:03.576Z,4.07
2019-05-30T02:49:34.383Z,3.17
2019-05-30T02:52:06.725Z,3.20
2019-05-30T02:54:36.634Z,2.60
2019-05-30T02:57:07.881Z,2.73
2019-05-30T02:59:38.860Z,6.10
2019-05-30T03:02:14.038Z,3.67
2019-05-30T03:04:40.677Z,4.43
2019-05-30T03:07:12.536Z,4.23
2019-05-30T03:09:43.525Z,2.93
2019-05-30T03:12:14.010Z,3.57
2019-05-30T03:14:46.131Z,3.73
2019-05-30T03:17:16.977Z,4.27
2019-05-30T03:19:46.985Z,4.47
2019-05-30T03:22:17.692Z,3.37
2019-05-30T03:24:48.187Z,6.83
2019-05-30T03:27:18.702Z,3.90
2019-05-30T03:29:51.082Z,4.53
2019-05-30T03:34:53.567Z,12.70
2019-05-30T03:37:29.285Z,4.50
2019-05-30T03:39:55.995Z,4.53
2019-05-30T03:42:26.001Z,4.13
2019-05-30T03:44:57.449Z,3.50
2019-05-30T03:47:30.756Z,8.70
2019-05-30T03:50:04.601Z,6.30
2019-05-30T03:52:35.198Z,3.30
2019-05-30T03:55:06.986Z,4.57
2019-05-30T03:57:44.106Z,4.53
2019-05-30T04:00:21.874Z,3.80
2019-05-30T04:02:58.966Z,4.83
2019-05-30T04:05:36.613Z,5.93
2019-05-30T04:08:09.955Z,4.73
2019-05-30T04:10:44.051Z,4.70
2019-05-30T04:13:24.460Z,4.00
2019-05-30T04:15:54.508Z,4.53
2019-05-30T04:18:25.093Z,4.00
2019-05-30T04:20:55.379Z,6.83
2019-05-30T04:23:25.757Z,5.50
2019-05-30T04:26:00.170Z,6.10
2019-05-30T04:28:28.206Z,4.87
2019-05-30T04:30:58.979Z,5.50
2019-05-30T04:33:33.564Z,4.60
2019-05-30T04:36:01.376Z,4.93
2019-05-30T04:38:31.605Z,5.43
2019-05-30T04:41:01.910Z,5.13
2019-05-30T04:43:34.108Z,4.63
2019-05-30T04:46:04.401Z,6.70
2019-05-30T04:48:34.509Z,4.00
2019-05-30T04:51:06.418Z,5.80
2019-05-30T04:53:41.084Z,7.40
2019-05-30T04:56:12.674Z,5.37
2019-05-30T04:58:50.883Z,5.70
2019-05-30T05:01:22.542Z,8.30
2019-05-30T05:03:59.545Z,5.50
2019-05-30T05:06:31.625Z,5.40
2019-05-30T05:09:02.339Z,6.27
2019-05-30T05:11:33.018Z,6.83
2019-05-30T05:14:03.950Z,5.13
2019-05-30T05:16:36.272Z,6.67
2019-05-30T05:19:06.719Z,7.10
2019-05-30T05:21:36.679Z,6.50
2019-05-30T05:24:06.816Z,6.67
2019-05-30T05:26:37.669Z,8.70
2019-05-30T05:29:07.727Z,5.20
2019-05-30T05:31:38.427Z,5.43
2019-05-30T05:34:09.012Z,5.23
2019-05-30T05:36:38.932Z,6.30
2019-05-30T05:39:10.583Z,10.20
2019-05-30T05:41:40.804Z,9.03
2019-05-30T05:44:11.387Z,7.47
2019-05-30T05:46:41.797Z,6.60
2019-05-30T05:49:12.374Z,7.03
2019-05-30T05:51:42.611Z,5.60
2019-05-30T05:54:12.643Z,6.17
2019-05-30T05:56:43.055Z,7.17
2019-05-30T05:59:14.754Z,5.73
2019-05-30T06:01:44.878Z,6.47
2019-05-30T06:04:25.942Z,6.27
2019-05-30T06:06:56.088Z,6.60
2019-05-30T06:09:26.281Z,9.03
2019-05-30T06:11:56.899Z,6.53
2019-05-30T06:14:28.163Z,9.60
2019-05-30T06:17:00.752Z,4.77
2019-05-30T06:19:45.391Z,4.50
2019-05-30T06:22:02.837Z,5.70
2019-05-30T06:24:33.514Z,7.13
2019-05-30T06:27:03.900Z,5.07
2019-05-30T06:29:36.049Z,7.23
2019-05-30T06:32:06.505Z,10.30
2019-05-30T06:34:39.368Z,7.27
2019-05-30T06:37:11.895Z,6.80
2019-05-30T06:39:40.544Z,5.80
2019-05-30T06:42:10.555Z,5.40
2019-05-30T06:44:40.701Z,5.90
2019-05-30T06:47:10.939Z,5.33
2019-05-30T06:49:41.387Z,6.17
2019-05-30T06:52:12.106Z,9.00
2019-05-30T06:54:42.481Z,5.10
2019-05-30T06:57:12.695Z,5.47
2019-05-30T06:59:42.730Z,5.07
2019-05-30T07:02:13.383Z,5.87
2019-05-30T07:04:51.593Z,7.97
2019-05-30T07:07:15.577Z,5.10
2019-05-30T07:09:46.149Z,10.20
2019-05-30T07:12:16.228Z,8.83
2019-05-30T07:14:46.345Z,5.40
2019-05-30T07:17:16.649Z,5.77
2019-05-30T07:19:46.629Z,6.23
2019-05-30T07:22:16.887Z,9.67
2019-05-30T07:24:47.322Z,7.23
2019-05-30T07:27:17.757Z,5.03
2019-05-30T07:29:48.071Z,5.87
2019-05-30T07:32:18.552Z,7.13
2019-05-30T07:34:48.643Z,5.93
2019-05-30T07:37:18.953Z,10.37
2019-05-30T07:39:49.244Z,6.63
2019-05-30T07:42:19.340Z,8.40
2019-05-30T07:44:49.944Z,7.10
2019-05-30T07:47:20.226Z,6.67
2019-05-30T07:49:50.347Z,6.27
2019-05-30T07:52:20.462Z,8.80
2019-05-30T07:54:50.815Z,6.60
2019-05-30T07:57:20.984Z,6.13
2019-05-30T07:59:51.504Z,6.87
2019-05-30T08:02:21.610Z,7.80
2019-05-30T08:04:51.575Z,6.63
2019-05-30T08:07:21.692Z,6.80
2019-05-30T08:09:51.806Z,5.93
2019-05-30T08:12:21.796Z,7.30
2019-05-30T08:14:52.608Z,10.27
2019-05-30T08:17:22.805Z,5.50
2019-05-30T08:19:53.078Z,7.40
2019-05-30T08:22:23.145Z,6.40
2019-05-30T08:24:54.488Z,7.87
2019-05-30T08:27:24.601Z,6.43
2019-05-30T08:29:55.155Z,8.43
2019-05-30T08:32:25.330Z,12.00
2019-05-30T08:34:55.787Z,6.50
2019-05-30T08:37:28.927Z,5.50
2019-05-30T08:39:59.295Z,7.53
2019-05-30T08:42:29.611Z,5.80
2019-05-30T08:45:00.706Z,5.30
2019-05-30T08:47:31.771Z,5.73
2019-05-30T08:50:01.941Z,9.30
2019-05-30T08:52:32.431Z,5.30
2019-05-30T08:55:04.119Z,8.10
2019-05-30T08:57:35.006Z,6.60
2019-05-30T09:00:06.023Z,8.33
2019-05-30T09:02:36.643Z,9.83
2019-05-30T09:05:07.905Z,6.23
2019-05-30T09:07:38.357Z,6.43
2019-05-30T09:10:09.752Z,5.90
2019-05-30T09:12:42.800Z,8.40
2019-05-30T09:15:13.052Z,4.83
2019-05-30T09:17:44.749Z,8.23
2019-05-30T09:20:15.812Z,8.03
2019-05-30T09:22:46.007Z,6.67
2019-05-30T09:25:16.467Z,6.07
2019-05-30T09:27:46.774Z,9.60
2019-05-30T09:30:18.278Z,7.43
2019-05-30T09:32:48.964Z,6.57
2019-05-30T09:35:20.059Z,10.70
2019-05-30T09:37:50.269Z,8.87
2019-05-30T09:40:21.372Z,11.87
2019-05-30T09:42:51.567Z,13.27
2019-05-30T09:45:22.120Z,11.07
2019-05-30T09:47:53.039Z,12.73
2019-05-30T09:50:23.952Z,14.47
2019-05-30T09:52:54.067Z,18.83
2019-05-30T09:55:25.597Z,16.47
2019-05-30T09:57:55.522Z,12.47
2019-05-30T10:00:26.227Z,20.10
2019-05-30T10:02:58.335Z,19.00
2019-05-30T10:05:28.526Z,14.97
2019-05-30T10:07:58.629Z,16.30
2019-05-30T10:10:30.234Z,16.37
2019-05-30T10:13:00.255Z,18.57
2019-05-30T10:15:30.537Z,20.50
2019-05-30T10:18:00.953Z,16.90
2019-05-30T10:20:31.510Z,17.07
2019-05-30T10:23:03.704Z,20.90
2019-05-30T10:25:33.783Z,18.63
2019-05-30T10:28:03.829Z,17.73
2019-05-30T10:30:34.661Z,21.20
2019-05-30T10:33:04.979Z,21.80
2019-05-30T10:35:35.440Z,20.03
2019-05-30T10:38:05.644Z,21.97
2019-05-30T10:40:36.964Z,24.13
2019-05-30T10:43:08.520Z,18.00
2019-05-30T10:45:39.226Z,21.73
2019-05-30T10:48:09.503Z,18.20
2019-05-30T10:50:39.652Z,21.00
2019-05-30T10:53:09.828Z,21.07
2019-05-30T10:55:41.097Z,21.50
2019-05-30T10:58:11.545Z,21.67
2019-05-30T11:00:48.976Z,23.53
2019-05-30T11:03:20.260Z,24.27
2019-05-30T11:05:59.681Z,27.80
2019-05-30T11:08:32.679Z,24.27
2019-05-30T11:11:03.610Z,23.40
2019-05-30T11:13:33.678Z,23.57
2019-05-30T11:16:04.236Z,28.90
2019-05-30T11:18:34.635Z,27.40
2019-05-30T11:21:05.086Z,25.30
2019-05-30T11:23:35.125Z,29.50
2019-05-30T11:26:06.119Z,28.07
2019-05-30T11:28:36.255Z,30.17
2019-05-30T11:31:06.358Z,24.83
2019-05-30T11:33:36.524Z,35.50
2019-05-30T11:36:06.731Z,30.93
2019-05-30T11:38:36.619Z,26.40
2019-05-30T11:41:06.698Z,30.87
2019-05-30T11:43:37.102Z,28.80
2019-05-30T11:46:07.165Z,28.53
2019-05-30T11:48:37.421Z,28.30
2019-05-30T11:51:09.132Z,29.17
2019-05-30T11:53:39.641Z,31.63
2019-05-30T11:56:09.848Z,30.73
2019-05-30T11:58:39.872Z,29.73
2019-05-30T12:01:09.830Z,31.40
2019-05-30T12:03:40.171Z,29.50
2019-05-30T12:06:10.686Z,30.83
2019-05-30T12:08:41.147Z,32.03
2019-05-30T12:11:11.851Z,32.27
2019-05-30T12:13:41.939Z,33.10
2019-05-30T12:16:12.311Z,33.10
2019-05-30T12:18:42.473Z,33.30
2019-05-30T12:21:12.980Z,29.40
2019-05-30T12:23:43.154Z,30.10
2019-05-30T12:26:13.460Z,30.57
2019-05-30T12:28:49.917Z,29.73
2019-05-30T12:31:25.063Z,30.73
2019-05-30T12:33:56.222Z,27.53
2019-05-30T12:36:26.727Z,32.53
2019-05-30T12:38:57.026Z,36.77
2019-05-30T12:41:27.526Z,31.97
2019-05-30T12:43:59.132Z,31.87
2019-05-30T12:46:29.608Z,32.33
2019-05-30T12:48:59.958Z,34.83
2019-05-30T12:51:30.079Z,32.83
2019-05-30T12:54:00.515Z,31.37
2019-05-30T12:56:31.059Z,31.10
2019-05-30T12:59:01.195Z,35.13
2019-05-30T13:01:43.618Z,28.17
2019-05-30T13:04:13.974Z,25.37
2019-05-30T13:06:44.090Z,23.10
2019-05-30T13:09:14.446Z,24.10
2019-05-30T13:11:44.915Z,25.57
2019-05-30T13:14:15.050Z,28.50
2019-05-30T13:16:45.551Z,26.63
2019-05-30T13:19:15.834Z,24.63
2019-05-30T13:21:46.213Z,25.40
2019-05-30T13:24:20.624Z,27.20
2019-05-30T13:26:51.317Z,21.87
2019-05-30T13:29:25.900Z,22.57
2019-05-30T13:31:58.424Z,19.77
2019-05-30T13:34:31.443Z,23.37
2019-05-30T13:37:03.269Z,22.03
2019-05-30T13:39:33.325Z,21.50
2019-05-30T13:42:03.783Z,20.13
2019-05-30T13:44:34.306Z,18.80
2019-05-30T13:47:32.985Z,18.73
2019-05-30T13:50:05.353Z,20.17
2019-05-30T13:52:35.374Z,18.77
2019-05-30T13:55:08.431Z,18.70
2019-05-30T13:57:38.639Z,15.60
2019-05-30T14:00:10.615Z,20.63
2019-05-30T14:02:41.677Z,17.50
2019-05-30T14:05:11.836Z,17.23
2019-05-30T14:07:42.542Z,14.90
2019-05-30T14:10:14.265Z,14.93
2019-05-30T14:13:07.512Z,17.30
2019-05-30T14:15:40.413Z,16.73
2019-05-30T14:18:11.194Z,17.30
2019-05-30T14:20:41.305Z,19.03
2019-05-30T14:23:12.189Z,12.37
2019-05-30T14:26:20.892Z,13.90
2019-05-30T14:28:51.105Z,16.40
2019-05-30T14:31:21.068Z,14.57
2019-05-30T14:33:51.472Z,13.63
2019-05-30T14:36:21.768Z,14.10
2019-05-30T14:39:09.075Z,16.50
2019-05-30T14:41:39.829Z,13.47
2019-05-30T14:44:09.867Z,13.43
2019-05-30T14:46:40.797Z,13.60
2019-05-30T14:49:11.327Z,14.30
2019-05-30T14:51:41.719Z,12.03
2019-05-30T14:54:14.003Z,14.57
2019-05-30T14:56:44.781Z,12.10
2019-05-30T14:59:14.967Z,13.37
2019-05-30T15:01:45.073Z,15.43
2019-05-30T15:04:17.840Z,12.70
2019-05-30T15:06:48.307Z,13.83
2019-05-30T15:09:25.785Z,13.63
2019-05-30T15:11:51.171Z,14.20
2019-05-30T15:14:21.735Z,10.03
2019-05-30T15:16:55.404Z,12.90
2019-05-30T15:19:25.456Z,13.43
2019-05-30T15:21:55.778Z,12.10
2019-05-30T15:24:25.939Z,15.10
2019-05-30T15:26:55.961Z,12.60
2019-05-30T15:29:26.046Z,12.10
2019-05-30T15:32:29.009Z,10.17
2019-05-30T15:34:58.523Z,17.70
2019-05-30T15:37:29.296Z,12.87
2019-05-30T15:39:59.315Z,11.43
2019-05-30T15:42:29.495Z,12.93
2019-05-30T15:44:59.732Z,15.67
2019-05-30T15:47:32.292Z,10.70
2019-05-30T15:50:02.293Z,10.33
2019-05-30T15:52:34.260Z,10.67
2019-05-30T15:55:04.454Z,11.43
2019-05-30T15:57:34.739Z,13.33
2019-05-30T16:00:07.491Z,12.90
2019-05-30T16:02:37.771Z,10.80
2019-05-30T16:05:08.226Z,15.73
2019-05-30T16:07:38.943Z,9.63
2019-05-30T16:10:10.924Z,10.47
2019-05-30T16:12:41.160Z,12.17
2019-05-30T16:15:13.460Z,12.63
2019-05-30T16:17:43.984Z,11.17
2019-05-30T16:20:15.596Z,11.73
2019-05-30T16:22:46.744Z,13.00
2019-05-30T16:25:17.748Z,10.70
2019-05-30T16:27:48.080Z,10.40
2019-05-30T16:30:22.463Z,13.53
2019-05-30T16:32:50.591Z,11.80
2019-05-30T16:35:22.176Z,13.47
2019-05-30T16:37:52.544Z,13.23
2019-05-30T16:40:24.038Z,13.93
2019-05-30T16:42:54.429Z,12.53
2019-05-30T16:45:25.244Z,14.47
2019-05-30T16:47:56.281Z,13.43
2019-05-30T16:50:27.035Z,12.70
2019-05-30T16:52:57.709Z,14.43
2019-05-30T16:55:28.149Z,12.67
2019-05-30T16:57:58.228Z,12.40
2019-05-30T17:00:29.068Z,13.67
2019-05-30T17:03:10.376Z,11.83
2019-05-30T17:05:40.823Z,11.30
2019-05-30T17:08:12.085Z,14.30
2019-05-30T17:10:42.656Z,15.20
2019-05-30T17:13:13.092Z,13.60
2019-05-30T17:15:43.288Z,12.23
2019-05-30T17:18:13.311Z,13.40
2019-05-30T17:20:43.295Z,15.30
2019-05-30T17:23:13.660Z,13.70
2019-05-30T17:25:43.636Z,14.00
2019-05-30T17:28:14.992Z,14.20
2019-05-30T17:30:45.349Z,13.90
2019-05-30T17:33:17.813Z,15.17
2019-05-30T17:35:47.970Z,14.40
2019-05-30T17:38:18.750Z,11.33
2019-05-30T17:40:49.763Z,14.53
2019-05-30T17:43:21.007Z,21.00
2019-05-30T17:45:51.223Z,16.40
2019-05-30T17:48:21.459Z,14.97
2019-05-30T17:50:51.956Z,20.80
2019-05-30T17:53:23.836Z,16.07
2019-05-30T17:55:54.167Z,12.87
2019-05-30T17:58:24.471Z,14.03
2019-05-30T18:00:57.055Z,16.00
2019-05-30T18:03:30.610Z,18.10
2019-05-30T18:06:02.194Z,15.03
2019-05-30T18:08:32.832Z,15.90
2019-05-30T18:11:15.970Z,13.93
2019-05-30T18:13:50.297Z,15.87
2019-05-30T18:16:21.136Z,14.97
2019-05-30T18:18:51.980Z,20.80
2019-05-30T18:21:23.421Z,13.87
2019-05-30T18:23:54.054Z,14.77
2019-05-30T18:26:25.435Z,13.73
2019-05-30T18:28:55.686Z,14.10
2019-05-30T18:31:26.142Z,15.83
2019-05-30T18:33:56.321Z,16.00
2019-05-30T18:36:26.347Z,13.10
2019-05-30T18:38:57.020Z,14.63
2019-05-30T18:41:28.478Z,13.93
2019-05-30T18:43:58.907Z,16.80
2019-05-30T18:46:29.346Z,16.33
2019-05-30T18:48:59.553Z,15.63
2019-05-30T18:51:30.359Z,17.33
2019-05-30T18:54:00.655Z,14.50
2019-05-30T18:56:31.124Z,15.50
2019-05-30T18:59:01.308Z,13.80
2019-05-30T19:01:31.811Z,16.00
2019-05-30T19:04:02.052Z,16.50
2019-05-30T19:06:33.782Z,15.30
2019-05-30T19:09:04.937Z,14.90
2019-05-30T19:11:36.586Z,14.93
2019-05-30T19:14:07.071Z,15.70
2019-05-30T19:16:37.629Z,17.40
2019-05-30T19:19:07.641Z,16.90
2019-05-30T19:21:37.776Z,14.30
2019-05-30T19:24:08.722Z,13.53
2019-05-30T19:26:38.738Z,16.07
2019-05-30T19:29:09.074Z,15.17
2019-05-30T19:31:39.367Z,14.93
2019-05-30T19:34:09.452Z,16.27
2019-05-30T19:36:39.559Z,17.30
2019-05-30T19:39:10.322Z,19.00
2019-05-30T19:41:56.327Z,17.63
2019-05-30T19:44:12.345Z,20.80
2019-05-30T19:46:42.860Z,23.80
2019-05-30T19:49:13.071Z,19.13
2019-05-30T19:51:43.177Z,16.70
2019-05-30T19:54:13.467Z,20.57
2019-05-30T19:56:44.075Z,21.30
2019-05-30T19:59:13.986Z,21.17
2019-05-30T20:01:44.404Z,20.83
2019-05-30T20:04:14.731Z,23.17
2019-05-30T20:06:45.058Z,25.70
2019-05-30T20:09:15.138Z,23.30
2019-05-30T20:11:59.891Z,22.20
2019-05-30T20:14:17.271Z,28.07
2019-05-30T20:16:47.287Z,24.93
2019-05-30T20:19:17.332Z,26.03
2019-05-30T20:21:47.919Z,24.00
2019-05-30T20:24:19.327Z,22.13
2019-05-30T20:26:50.898Z,25.03
2019-05-30T20:29:25.673Z,22.30
2019-05-30T20:31:55.940Z,23.20
2019-05-30T20:34:26.564Z,22.70
2019-05-30T20:36:56.824Z,24.40
2019-05-30T20:39:26.979Z,20.13
2019-05-30T20:41:57.567Z,23.97
2019-05-30T20:44:27.641Z,21.10
2019-05-30T20:46:57.695Z,21.37
2019-05-30T20:49:28.051Z,24.03
2019-05-30T20:51:58.702Z,23.30
2019-05-30T20:54:28.793Z,22.20
2019-05-30T20:56:59.156Z,24.50
2019-05-30T20:59:29.571Z,22.07
2019-05-30T21:01:59.507Z,18.80
2019-05-30T21:04:29.609Z,17.23
2019-05-30T21:07:00.420Z,18.43
2019-05-30T21:09:31.345Z,15.47
2019-05-30T21:12:02.953Z,15.60
2019-05-30T21:14:35.561Z,17.13
2019-05-30T21:17:06.213Z,14.37
2019-05-30T21:19:37.557Z,14.90
2019-05-30T21:22:08.059Z,16.57
2019-05-30T21:24:38.601Z,13.40
2019-05-30T21:27:08.640Z,15.77
2019-05-30T21:29:38.962Z,14.80
2019-05-30T21:32:09.743Z,15.30
2019-05-30T21:34:40.465Z,12.57
2019-05-30T21:37:12.247Z,13.30
2019-05-30T21:39:43.978Z,13.87
2019-05-30T21:42:14.360Z,15.90
2019-05-30T21:44:49.017Z,13.07
2019-05-30T21:47:17.039Z,14.00
2019-05-30T21:49:47.129Z,14.20
2019-05-30T21:52:17.279Z,13.97
2019-05-30T21:54:47.939Z,13.33
2019-05-30T21:57:18.031Z,15.03
2019-05-30T21:59:48.955Z,12.40
2019-05-30T22:02:19.288Z,13.07
2019-05-30T22:04:49.192Z,14.30
2019-05-30T22:07:19.309Z,13.77
2019-05-30T22:09:50.002Z,12.10
2019-05-30T22:12:20.024Z,19.60
2019-05-30T22:14:50.126Z,19.00
2019-05-30T22:17:20.408Z,12.93
2019-05-30T22:19:50.325Z,11.77
2019-05-30T22:22:20.370Z,21.50
2019-05-30T22:24:52.345Z,12.43
2019-05-30T22:27:22.547Z,11.60
2019-05-30T22:29:52.717Z,11.80
2019-05-30T22:32:22.692Z,15.90
2019-05-30T22:34:53.111Z,10.83
2019-05-30T22:37:23.125Z,11.53
2019-05-30T22:39:53.961Z,11.13
2019-05-30T22:42:23.848Z,8.67
2019-05-30T22:44:54.071Z,13.90
2019-05-30T22:47:24.522Z,10.63
2019-05-30T22:49:54.851Z,11.13
2019-05-30T22:52:24.837Z,12.10
2019-05-30T22:54:55.002Z,17.40
2019-05-30T22:57:25.682Z,11.57
2019-05-30T22:59:55.649Z,10.50
2019-05-30T23:02:25.704Z,9.57
2019-05-30T23:04:56.419Z,11.07
2019-05-30T23:07:26.472Z,9.20
2019-05-30T23:09:56.611Z,9.03
2019-05-30T23:12:28.154Z,8.67
2019-05-30T23:14:58.672Z,9.33
2019-05-30T23:17:28.946Z,9.20
2019-05-30T23:19:58.917Z,8.03
2019-05-30T23:22:28.983Z,9.97
2019-05-30T23:24:59.164Z,8.37
2019-05-30T23:27:29.695Z,9.17
2019-05-30T23:29:59.740Z,9.50
2019-05-30T23:32:29.975Z,7.80
2019-05-30T23:35:00.084Z,9.00
2019-05-30T23:37:30.381Z,10.63
2019-05-30T23:40:00.491Z,9.53
2019-05-30T23:42:31.231Z,7.90
2019-05-30T23:45:01.377Z,11.93
2019-05-30T23:47:31.616Z,9.70
2019-05-30T23:50:01.760Z,10.77
2019-05-30T23:52:32.060Z,10.17
2019-05-30T23:55:02.541Z,8.10
2019-05-30T23:57:32.972Z,8.40
